createdAt,value
2022-11-18T15:28:17.274Z,16.07
2022-11-18T15:33:20.477Z,21.70
2022-11-18T15:38:23.304Z,19.03
2022-11-18T15:43:26.150Z,23.63
2022-11-18T15:48:28.959Z,25.57
2022-11-18T15:53:31.763Z,27.03
2022-11-18T15:58:36.166Z,26.90
2022-11-18T16:03:39.452Z,25.47
2022-11-18T16:08:42.499Z,28.40
2022-11-18T16:13:45.938Z,23.33
2022-11-18T16:18:48.809Z,31.40
2022-11-18T16:23:54.507Z,25.73
2022-11-18T16:28:57.502Z,27.23
2022-11-18T16:34:05.837Z,30.80
2022-11-18T16:39:14.321Z,33.27
2022-11-18T16:44:17.687Z,27.57
2022-11-18T16:49:23.000Z,32.97
2022-11-18T16:54:27.707Z,33.17
2022-11-18T16:59:31.579Z,32.07
2022-11-18T17:04:36.376Z,32.90
2022-11-18T17:09:39.492Z,31.90
2022-11-18T17:14:42.256Z,32.83
2022-11-18T17:19:45.038Z,31.83
2022-11-18T17:24:47.792Z,34.93
2022-11-18T17:29:51.046Z,32.77
2022-11-18T17:34:53.771Z,32.37
2022-11-18T17:39:56.608Z,30.40
2022-11-18T17:44:59.480Z,29.77
2022-11-18T17:50:02.329Z,21.07
2022-11-18T17:55:06.963Z,33.27
2022-11-18T18:00:10.825Z,33.73
2022-11-18T18:05:16.284Z,30.17
2022-11-18T18:10:21.243Z,31.93
2022-11-18T18:15:24.208Z,30.27
2022-11-18T18:20:27.442Z,26.40
2022-11-18T18:25:30.552Z,30.37
2022-11-18T18:30:33.301Z,26.50
2022-11-18T18:35:41.408Z,30.20
2022-11-18T18:40:44.195Z,29.47
2022-11-18T18:46:05.508Z,28.27
2022-11-18T18:51:08.305Z,27.30
2022-11-18T18:56:11.041Z,24.20
2022-11-18T19:01:16.034Z,25.93
2022-11-18T19:06:53.289Z,25.33
2022-11-18T19:12:08.132Z,27.03
2022-11-18T19:17:12.356Z,26.17
2022-11-18T19:22:15.935Z,30.00
2022-11-18T19:27:19.498Z,30.83
2022-11-18T19:32:22.569Z,26.37
2022-11-18T19:37:25.371Z,28.37
2022-11-18T19:42:28.964Z,24.93
2022-11-18T19:47:32.117Z,25.37
2022-11-18T19:52:34.961Z,23.90
2022-11-18T19:57:37.730Z,23.50
2022-11-18T20:02:40.514Z,22.37
2022-11-18T20:07:43.416Z,19.20
2022-11-18T20:12:46.188Z,21.07
2022-11-18T20:17:48.959Z,20.27
2022-11-18T20:22:54.233Z,19.47
2022-11-18T20:27:57.309Z,19.73
2022-11-18T20:33:00.106Z,19.47
2022-11-18T20:38:02.972Z,19.57
2022-11-18T20:43:14.499Z,18.57
2022-11-18T20:48:17.296Z,15.80
2022-11-18T20:53:22.225Z,14.80
2022-11-18T20:58:24.985Z,16.27
2022-11-18T21:03:27.700Z,14.63
2022-11-18T21:08:30.405Z,12.70
2022-11-18T21:13:52.507Z,12.13
2022-11-18T21:18:55.518Z,13.07
2022-11-18T21:24:00.134Z,12.27
2022-11-18T21:29:06.173Z,13.30
2022-11-18T21:34:10.238Z,12.47
2022-11-18T21:39:13.658Z,12.27
2022-11-18T21:44:16.501Z,11.40
2022-11-18T21:49:19.594Z,12.50
2022-11-18T21:54:22.444Z,11.97
2022-11-18T21:59:25.248Z,11.10
2022-11-18T22:04:46.457Z,12.07
2022-11-18T22:09:49.487Z,12.70
2022-11-18T22:14:52.213Z,10.80
2022-11-18T22:19:54.911Z,12.37
2022-11-18T22:24:57.613Z,11.60
2022-11-18T22:30:00.330Z,12.17
2022-11-18T22:35:03.252Z,11.87
2022-11-18T22:40:06.601Z,11.60
2022-11-18T22:45:09.791Z,10.67
2022-11-18T22:50:12.558Z,11.20
2022-11-18T22:55:15.518Z,10.77
2022-11-18T23:00:18.896Z,11.33
2022-11-18T23:05:41.410Z,10.83
2022-11-18T23:11:22.907Z,10.60
2022-11-18T23:16:55.752Z,10.63
2022-11-18T23:22:11.395Z,11.20
2022-11-18T23:27:42.400Z,10.87
2022-11-18T23:32:51.442Z,10.20
2022-11-18T23:38:04.554Z,11.23
2022-11-18T23:43:17.746Z,10.47
2022-11-18T23:48:27.726Z,9.93
2022-11-18T23:53:49.649Z,10.60
2022-11-18T23:59:01.167Z,10.00
